sensor_id;sensor_type;location;lat;lon;timestamp;P1;durP1;ratioP1;P2;durP2;ratioP2
12756;SDS011;31601;48.042;12.240;2022-07-06T00:01:06;3.93;;;3.00;;
12756;SDS011;31601;48.042;12.240;2022-07-06T00:03:33;2.70;;;2.50;;
12756;SDS011;31601;48.042;12.240;2022-07-06T00:06:00;4.93;;;3.10;;
12756;SDS011;31601;48.042;12.240;2022-07-06T00:08:27;4.47;;;2.67;;
12756;SDS011;31601;48.042;12.240;2022-07-06T00:10:53;3.37;;;3.07;;
12756;SDS011;31601;48.042;12.240;2022-07-06T00:13:20;4.50;;;2.77;;
12756;SDS011;31601;48.042;12.240;2022-07-06T00:15:46;3.17;;;2.97;;
12756;SDS011;31601;48.042;12.240;2022-07-06T00:18:12;3.27;;;2.80;;
12756;SDS011;31601;48.042;12.240;2022-07-06T00:20:39;3.03;;;2.73;;
12756;SDS011;31601;48.042;12.240;2022-07-06T00:23:07;6.57;;;3.10;;
12756;SDS011;31601;48.042;12.240;2022-07-06T00:25:33;3.37;;;2.97;;
12756;SDS011;31601;48.042;12.240;2022-07-06T00:28:00;3.50;;;2.97;;
12756;SDS011;31601;48.042;12.240;2022-07-06T00:30:26;3.37;;;2.73;;
12756;SDS011;31601;48.042;12.240;2022-07-06T00:32:53;3.27;;;3.00;;
12756;SDS011;31601;48.042;12.240;2022-07-06T00:35:19;4.43;;;3.17;;
12756;SDS011;31601;48.042;12.240;2022-07-06T00:37:46;4.00;;;3.17;;
12756;SDS011;31601;48.042;12.240;2022-07-06T00:40:13;4.63;;;3.40;;
12756;SDS011;31601;48.042;12.240;2022-07-06T00:42:40;5.03;;;3.33;;
12756;SDS011;31601;48.042;12.240;2022-07-06T00:45:07;4.00;;;2.90;;
12756;SDS011;31601;48.042;12.240;2022-07-06T00:47:34;8.47;;;3.20;;
12756;SDS011;31601;48.042;12.240;2022-07-06T00:50:01;4.67;;;2.90;;
12756;SDS011;31601;48.042;12.240;2022-07-06T00:52:43;3.37;;;3.07;;
12756;SDS011;31601;48.042;12.240;2022-07-06T00:55:11;6.40;;;2.70;;
12756;SDS011;31601;48.042;12.240;2022-07-06T00:57:40;3.10;;;2.80;;
12756;SDS011;31601;48.042;12.240;2022-07-06T01:00:09;4.17;;;3.00;;
12756;SDS011;31601;48.042;12.240;2022-07-06T01:02:37;3.50;;;3.20;;
12756;SDS011;31601;48.042;12.240;2022-07-06T01:05:04;4.33;;;3.23;;
12756;SDS011;31601;48.042;12.240;2022-07-06T01:07:32;6.93;;;3.20;;
12756;SDS011;31601;48.042;12.240;2022-07-06T01:09:59;7.37;;;3.40;;
12756;SDS011;31601;48.042;12.240;2022-07-06T01:12:27;4.77;;;3.10;;
12756;SDS011;31601;48.042;12.240;2022-07-06T01:14:54;4.07;;;3.50;;
12756;SDS011;31601;48.042;12.240;2022-07-06T01:17:20;3.70;;;2.73;;
12756;SDS011;31601;48.042;12.240;2022-07-06T01:19:47;7.43;;;3.13;;
12756;SDS011;31601;48.042;12.240;2022-07-06T01:22:15;4.13;;;3.00;;
12756;SDS011;31601;48.042;12.240;2022-07-06T01:24:41;3.57;;;2.80;;
12756;SDS011;31601;48.042;12.240;2022-07-06T01:27:08;3.57;;;3.07;;
12756;SDS011;31601;48.042;12.240;2022-07-06T01:29:34;4.13;;;2.93;;
12756;SDS011;31601;48.042;12.240;2022-07-06T01:32:01;3.40;;;3.10;;
12756;SDS011;31601;48.042;12.240;2022-07-06T01:34:27;3.30;;;3.00;;
12756;SDS011;31601;48.042;12.240;2022-07-06T01:36:54;5.30;;;2.87;;
12756;SDS011;31601;48.042;12.240;2022-07-06T01:39:22;4.67;;;2.70;;
12756;SDS011;31601;48.042;12.240;2022-07-06T01:41:48;4.63;;;2.90;;
12756;SDS011;31601;48.042;12.240;2022-07-06T01:44:15;3.07;;;2.63;;
12756;SDS011;31601;48.042;12.240;2022-07-06T01:46:41;5.13;;;2.60;;
12756;SDS011;31601;48.042;12.240;2022-07-06T01:49:08;4.83;;;2.43;;
12756;SDS011;31601;48.042;12.240;2022-07-06T01:51:34;3.73;;;2.80;;
12756;SDS011;31601;48.042;12.240;2022-07-06T01:54:00;3.97;;;2.50;;
12756;SDS011;31601;48.042;12.240;2022-07-06T01:56:28;3.90;;;2.87;;
12756;SDS011;31601;48.042;12.240;2022-07-06T01:58:55;4.27;;;2.20;;
12756;SDS011;31601;48.042;12.240;2022-07-06T02:01:22;5.90;;;2.50;;
12756;SDS011;31601;48.042;12.240;2022-07-06T02:03:49;6.03;;;2.97;;
12756;SDS011;31601;48.042;12.240;2022-07-06T02:06:15;4.77;;;2.87;;
12756;SDS011;31601;48.042;12.240;2022-07-06T02:08:42;4.27;;;3.00;;
12756;SDS011;31601;48.042;12.240;2022-07-06T02:11:09;4.03;;;2.67;;
12756;SDS011;31601;48.042;12.240;2022-07-06T02:13:38;4.57;;;3.00;;
12756;SDS011;31601;48.042;12.240;2022-07-06T02:16:04;3.17;;;2.80;;
12756;SDS011;31601;48.042;12.240;2022-07-06T02:18:31;5.67;;;2.80;;
12756;SDS011;31601;48.042;12.240;2022-07-06T02:20:57;4.77;;;2.50;;
12756;SDS011;31601;48.042;12.240;2022-07-06T02:23:24;3.37;;;2.63;;
12756;SDS011;31601;48.042;12.240;2022-07-06T02:25:51;7.60;;;2.80;;
12756;SDS011;31601;48.042;12.240;2022-07-06T02:28:17;3.43;;;3.13;;
12756;SDS011;31601;48.042;12.240;2022-07-06T02:30:45;3.50;;;2.73;;
12756;SDS011;31601;48.042;12.240;2022-07-06T02:33:11;4.17;;;3.03;;
12756;SDS011;31601;48.042;12.240;2022-07-06T02:35:38;5.07;;;3.23;;
12756;SDS011;31601;48.042;12.240;2022-07-06T02:38:07;4.80;;;2.70;;
12756;SDS011;31601;48.042;12.240;2022-07-06T02:40:34;3.50;;;2.67;;
12756;SDS011;31601;48.042;12.240;2022-07-06T02:43:00;5.43;;;3.20;;
12756;SDS011;31601;48.042;12.240;2022-07-06T02:45:27;4.07;;;3.07;;
12756;SDS011;31601;48.042;12.240;2022-07-06T02:47:55;3.00;;;2.57;;
12756;SDS011;31601;48.042;12.240;2022-07-06T02:50:22;5.50;;;2.90;;
12756;SDS011;31601;48.042;12.240;2022-07-06T02:52:48;3.73;;;2.87;;
12756;SDS011;31601;48.042;12.240;2022-07-06T02:55:15;4.67;;;2.83;;
12756;SDS011;31601;48.042;12.240;2022-07-06T02:57:42;3.77;;;2.67;;
12756;SDS011;31601;48.042;12.240;2022-07-06T03:00:09;2.60;;;2.40;;
12756;SDS011;31601;48.042;12.240;2022-07-06T03:02:36;5.50;;;2.80;;
12756;SDS011;31601;48.042;12.240;2022-07-06T03:05:04;4.10;;;2.43;;
12756;SDS011;31601;48.042;12.240;2022-07-06T03:07:31;5.63;;;2.73;;
12756;SDS011;31601;48.042;12.240;2022-07-06T03:09:58;3.30;;;2.57;;
12756;SDS011;31601;48.042;12.240;2022-07-06T03:12:24;2.50;;;2.30;;
12756;SDS011;31601;48.042;12.240;2022-07-06T03:14:51;4.00;;;2.50;;
12756;SDS011;31601;48.042;12.240;2022-07-06T03:17:17;3.57;;;2.43;;
12756;SDS011;31601;48.042;12.240;2022-07-06T03:19:43;4.13;;;2.60;;
12756;SDS011;31601;48.042;12.240;2022-07-06T03:22:11;4.50;;;2.77;;
12756;SDS011;31601;48.042;12.240;2022-07-06T03:24:38;5.60;;;2.90;;
12756;SDS011;31601;48.042;12.240;2022-07-06T03:27:04;3.50;;;2.70;;
12756;SDS011;31601;48.042;12.240;2022-07-06T03:29:31;2.90;;;2.57;;
12756;SDS011;31601;48.042;12.240;2022-07-06T03:31:57;4.90;;;2.63;;
12756;SDS011;31601;48.042;12.240;2022-07-06T03:34:23;5.60;;;3.27;;
12756;SDS011;31601;48.042;12.240;2022-07-06T03:36:50;3.97;;;2.90;;
12756;SDS011;31601;48.042;12.240;2022-07-06T03:39:18;6.03;;;3.07;;
12756;SDS011;31601;48.042;12.240;2022-07-06T03:41:44;5.17;;;2.63;;
12756;SDS011;31601;48.042;12.240;2022-07-06T03:44:10;5.80;;;3.17;;
12756;SDS011;31601;48.042;12.240;2022-07-06T03:46:37;8.80;;;2.63;;
12756;SDS011;31601;48.042;12.240;2022-07-06T03:49:03;5.67;;;2.87;;
12756;SDS011;31601;48.042;12.240;2022-07-06T03:51:30;7.73;;;2.93;;
12756;SDS011;31601;48.042;12.240;2022-07-06T03:53:56;5.40;;;2.67;;
12756;SDS011;31601;48.042;12.240;2022-07-06T03:56:24;9.10;;;3.10;;
12756;SDS011;31601;48.042;12.240;2022-07-06T03:58:58;3.83;;;2.60;;
12756;SDS011;31601;48.042;12.240;2022-07-06T04:01:26;6.27;;;3.30;;
12756;SDS011;31601;48.042;12.240;2022-07-06T04:03:53;7.67;;;2.80;;
12756;SDS011;31601;48.042;12.240;2022-07-06T04:06:20;8.53;;;2.80;;
12756;SDS011;31601;48.042;12.240;2022-07-06T04:08:47;6.33;;;2.47;;
12756;SDS011;31601;48.042;12.240;2022-07-06T04:11:14;6.47;;;2.60;;
12756;SDS011;31601;48.042;12.240;2022-07-06T04:13:42;6.40;;;3.27;;
12756;SDS011;31601;48.042;12.240;2022-07-06T04:16:08;6.43;;;2.93;;
12756;SDS011;31601;48.042;12.240;2022-07-06T04:18:34;3.80;;;3.00;;
12756;SDS011;31601;48.042;12.240;2022-07-06T04:21:01;3.50;;;3.20;;
12756;SDS011;31601;48.042;12.240;2022-07-06T04:23:28;3.90;;;2.87;;
12756;SDS011;31601;48.042;12.240;2022-07-06T04:25:54;4.53;;;2.70;;
12756;SDS011;31601;48.042;12.240;2022-07-06T04:28:21;5.63;;;2.57;;
12756;SDS011;31601;48.042;12.240;2022-07-06T04:30:49;6.70;;;2.43;;
12756;SDS011;31601;48.042;12.240;2022-07-06T04:33:15;6.63;;;2.70;;
12756;SDS011;31601;48.042;12.240;2022-07-06T04:35:41;5.23;;;2.60;;
12756;SDS011;31601;48.042;12.240;2022-07-06T04:38:08;4.93;;;2.77;;
12756;SDS011;31601;48.042;12.240;2022-07-06T04:40:34;5.10;;;2.60;;
12756;SDS011;31601;48.042;12.240;2022-07-06T04:43:01;5.05;;;2.92;;
12756;SDS011;31601;48.042;12.240;2022-07-06T04:45:27;2.43;;;2.23;;
12756;SDS011;31601;48.042;12.240;2022-07-06T04:47:55;5.33;;;2.50;;
12756;SDS011;31601;48.042;12.240;2022-07-06T04:50:22;2.60;;;2.23;;
12756;SDS011;31601;48.042;12.240;2022-07-06T04:52:48;3.23;;;2.27;;
12756;SDS011;31601;48.042;12.240;2022-07-06T04:55:15;6.13;;;2.30;;
12756;SDS011;31601;48.042;12.240;2022-07-06T04:57:41;2.90;;;2.37;;
12756;SDS011;31601;48.042;12.240;2022-07-06T05:00:08;2.67;;;2.47;;
12756;SDS011;31601;48.042;12.240;2022-07-06T05:02:36;4.30;;;2.60;;
12756;SDS011;31601;48.042;12.240;2022-07-06T05:05:04;6.32;;;3.03;;
12756;SDS011;31601;48.042;12.240;2022-07-06T05:07:31;4.43;;;2.30;;
12756;SDS011;31601;48.042;12.240;2022-07-06T05:09:59;4.63;;;3.05;;
12756;SDS011;31601;48.042;12.240;2022-07-06T05:12:25;4.15;;;2.15;;
12756;SDS011;31601;48.042;12.240;2022-07-06T05:14:51;5.47;;;2.67;;
12756;SDS011;31601;48.042;12.240;2022-07-06T05:17:18;5.50;;;2.53;;
12756;SDS011;31601;48.042;12.240;2022-07-06T05:19:44;4.15;;;2.38;;
12756;SDS011;31601;48.042;12.240;2022-07-06T05:22:12;4.60;;;2.50;;
12756;SDS011;31601;48.042;12.240;2022-07-06T05:24:38;5.35;;;2.25;;
12756;SDS011;31601;48.042;12.240;2022-07-06T05:27:05;3.83;;;2.30;;
12756;SDS011;31601;48.042;12.240;2022-07-06T05:29:31;3.00;;;2.20;;
12756;SDS011;31601;48.042;12.240;2022-07-06T05:31:58;5.20;;;2.35;;
12756;SDS011;31601;48.042;12.240;2022-07-06T05:34:24;4.07;;;2.58;;
12756;SDS011;31601;48.042;12.240;2022-07-06T05:36:50;4.45;;;2.13;;
12756;SDS011;31601;48.042;12.240;2022-07-06T05:39:18;3.80;;;2.10;;
12756;SDS011;31601;48.042;12.240;2022-07-06T05:41:47;3.03;;;1.90;;
12756;SDS011;31601;48.042;12.240;2022-07-06T05:44:14;2.40;;;1.80;;
12756;SDS011;31601;48.042;12.240;2022-07-06T05:46:41;3.42;;;1.90;;
12756;SDS011;31601;48.042;12.240;2022-07-06T05:49:07;4.25;;;2.03;;
12756;SDS011;31601;48.042;12.240;2022-07-06T05:51:51;4.82;;;2.00;;
12756;SDS011;31601;48.042;12.240;2022-07-06T05:54:19;3.10;;;2.00;;
12756;SDS011;31601;48.042;12.240;2022-07-06T05:56:45;2.63;;;1.75;;
12756;SDS011;31601;48.042;12.240;2022-07-06T05:59:12;3.78;;;1.50;;
12756;SDS011;31601;48.042;12.240;2022-07-06T06:01:38;2.58;;;1.70;;
12756;SDS011;31601;48.042;12.240;2022-07-06T06:04:05;4.35;;;1.50;;
12756;SDS011;31601;48.042;12.240;2022-07-06T06:06:32;3.65;;;1.70;;
12756;SDS011;31601;48.042;12.240;2022-07-06T06:08:58;1.63;;;1.40;;
12756;SDS011;31601;48.042;12.240;2022-07-06T06:11:26;4.07;;;1.60;;
12756;SDS011;31601;48.042;12.240;2022-07-06T06:13:52;1.33;;;1.23;;
12756;SDS011;31601;48.042;12.240;2022-07-06T06:16:19;2.58;;;1.73;;
12756;SDS011;31601;48.042;12.240;2022-07-06T06:18:45;3.38;;;1.65;;
12756;SDS011;31601;48.042;12.240;2022-07-06T06:21:12;2.22;;;1.35;;
12756;SDS011;31601;48.042;12.240;2022-07-06T06:23:38;2.75;;;1.48;;
12756;SDS011;31601;48.042;12.240;2022-07-06T06:26:04;3.67;;;1.73;;
12756;SDS011;31601;48.042;12.240;2022-07-06T06:28:32;4.95;;;1.48;;
12756;SDS011;31601;48.042;12.240;2022-07-06T06:30:59;2.03;;;1.25;;
12756;SDS011;31601;48.042;12.240;2022-07-06T06:33:25;1.73;;;1.40;;
12756;SDS011;31601;48.042;12.240;2022-07-06T06:35:52;3.20;;;1.20;;
12756;SDS011;31601;48.042;12.240;2022-07-06T06:38:19;1.33;;;1.02;;
12756;SDS011;31601;48.042;12.240;2022-07-06T06:40:47;2.13;;;1.05;;
12756;SDS011;31601;48.042;12.240;2022-07-06T06:43:14;3.47;;;1.50;;
12756;SDS011;31601;48.042;12.240;2022-07-06T06:45:41;1.73;;;1.30;;
12756;SDS011;31601;48.042;12.240;2022-07-06T06:48:09;3.88;;;1.45;;
12756;SDS011;31601;48.042;12.240;2022-07-06T06:50:36;1.50;;;1.15;;
12756;SDS011;31601;48.042;12.240;2022-07-06T06:53:02;4.57;;;1.40;;
12756;SDS011;31601;48.042;12.240;2022-07-06T06:55:29;2.50;;;1.20;;
12756;SDS011;31601;48.042;12.240;2022-07-06T06:57:55;2.40;;;1.40;;
12756;SDS011;31601;48.042;12.240;2022-07-06T07:00:22;3.83;;;1.33;;
12756;SDS011;31601;48.042;12.240;2022-07-06T07:02:50;4.35;;;1.40;;
12756;SDS011;31601;48.042;12.240;2022-07-06T07:05:16;3.55;;;1.70;;
12756;SDS011;31601;48.042;12.240;2022-07-06T07:07:43;1.33;;;1.23;;
12756;SDS011;31601;48.042;12.240;2022-07-06T07:10:10;3.67;;;1.60;;
12756;SDS011;31601;48.042;12.240;2022-07-06T07:12:41;2.65;;;1.50;;
12756;SDS011;31601;48.042;12.240;2022-07-06T07:15:09;2.25;;;1.30;;
12756;SDS011;31601;48.042;12.240;2022-07-06T07:17:35;5.88;;;1.30;;
12756;SDS011;31601;48.042;12.240;2022-07-06T07:20:03;2.50;;;1.27;;
12756;SDS011;31601;48.042;12.240;2022-07-06T07:22:30;2.55;;;1.48;;
12756;SDS011;31601;48.042;12.240;2022-07-06T07:24:57;1.50;;;1.20;;
12756;SDS011;31601;48.042;12.240;2022-07-06T07:27:23;2.85;;;1.40;;
12756;SDS011;31601;48.042;12.240;2022-07-06T07:29:50;2.15;;;1.30;;
12756;SDS011;31601;48.042;12.240;2022-07-06T07:32:16;5.88;;;1.35;;
12756;SDS011;31601;48.042;12.240;2022-07-06T07:34:43;4.95;;;1.20;;
12756;SDS011;31601;48.042;12.240;2022-07-06T07:37:11;2.03;;;1.33;;
12756;SDS011;31601;48.042;12.240;2022-07-06T07:39:37;1.55;;;1.30;;
12756;SDS011;31601;48.042;12.240;2022-07-06T07:42:04;2.92;;;1.23;;
12756;SDS011;31601;48.042;12.240;2022-07-06T07:44:30;2.45;;;1.33;;
12756;SDS011;31601;48.042;12.240;2022-07-06T07:46:57;2.95;;;1.23;;
12756;SDS011;31601;48.042;12.240;2022-07-06T07:49:23;2.35;;;1.00;;
12756;SDS011;31601;48.042;12.240;2022-07-06T07:51:50;1.45;;;1.05;;
12756;SDS011;31601;48.042;12.240;2022-07-06T07:54:17;3.22;;;1.20;;
12756;SDS011;31601;48.042;12.240;2022-07-06T07:56:44;1.83;;;1.13;;
12756;SDS011;31601;48.042;12.240;2022-07-06T07:59:10;3.05;;;1.10;;
12756;SDS011;31601;48.042;12.240;2022-07-06T08:01:37;2.88;;;1.10;;
12756;SDS011;31601;48.042;12.240;2022-07-06T08:04:04;1.35;;;0.90;;
12756;SDS011;31601;48.042;12.240;2022-07-06T08:06:30;5.70;;;1.27;;
12756;SDS011;31601;48.042;12.240;2022-07-06T08:08:57;2.65;;;1.20;;
12756;SDS011;31601;48.042;12.240;2022-07-06T08:11:24;3.53;;;1.00;;
12756;SDS011;31601;48.042;12.240;2022-07-06T08:13:51;7.03;;;1.60;;
12756;SDS011;31601;48.042;12.240;2022-07-06T08:16:17;2.30;;;1.13;;
12756;SDS011;31601;48.042;12.240;2022-07-06T08:18:44;1.77;;;1.30;;
12756;SDS011;31601;48.042;12.240;2022-07-06T08:21:10;5.00;;;1.05;;
12756;SDS011;31601;48.042;12.240;2022-07-06T08:23:37;3.15;;;1.30;;
12756;SDS011;31601;48.042;12.240;2022-07-06T08:26:03;2.78;;;1.00;;
12756;SDS011;31601;48.042;12.240;2022-07-06T08:28:31;2.40;;;1.08;;
12756;SDS011;31601;48.042;12.240;2022-07-06T08:30:58;3.42;;;1.17;;
12756;SDS011;31601;48.042;12.240;2022-07-06T08:33:24;6.03;;;1.35;;
12756;SDS011;31601;48.042;12.240;2022-07-06T08:35:50;2.92;;;1.27;;
12756;SDS011;31601;48.042;12.240;2022-07-06T08:38:17;2.17;;;1.23;;
12756;SDS011;31601;48.042;12.240;2022-07-06T08:40:45;2.72;;;1.38;;
12756;SDS011;31601;48.042;12.240;2022-07-06T08:43:14;2.55;;;1.35;;
12756;SDS011;31601;48.042;12.240;2022-07-06T08:45:42;4.63;;;1.60;;
12756;SDS011;31601;48.042;12.240;2022-07-06T08:48:10;2.72;;;1.00;;
12756;SDS011;31601;48.042;12.240;2022-07-06T08:50:38;2.55;;;1.30;;
12756;SDS011;31601;48.042;12.240;2022-07-06T08:53:04;4.60;;;1.20;;
12756;SDS011;31601;48.042;12.240;2022-07-06T08:55:31;3.88;;;1.35;;
12756;SDS011;31601;48.042;12.240;2022-07-06T08:57:58;2.47;;;1.55;;
12756;SDS011;31601;48.042;12.240;2022-07-06T09:00:25;3.17;;;1.40;;
12756;SDS011;31601;48.042;12.240;2022-07-06T09:02:53;3.17;;;1.15;;
12756;SDS011;31601;48.042;12.240;2022-07-06T09:05:22;3.53;;;1.40;;
12756;SDS011;31601;48.042;12.240;2022-07-06T09:07:49;4.97;;;1.20;;
12756;SDS011;31601;48.042;12.240;2022-07-06T09:10:17;1.75;;;1.40;;
12756;SDS011;31601;48.042;12.240;2022-07-06T09:12:44;6.47;;;1.50;;
12756;SDS011;31601;48.042;12.240;2022-07-06T09:15:11;4.72;;;1.50;;
12756;SDS011;31601;48.042;12.240;2022-07-06T09:17:38;4.72;;;1.50;;
12756;SDS011;31601;48.042;12.240;2022-07-06T09:20:08;1.88;;;1.35;;
12756;SDS011;31601;48.042;12.240;2022-07-06T09:22:35;4.03;;;1.40;;
12756;SDS011;31601;48.042;12.240;2022-07-06T09:25:03;4.55;;;1.10;;
12756;SDS011;31601;48.042;12.240;2022-07-06T09:27:31;6.60;;;1.40;;
12756;SDS011;31601;48.042;12.240;2022-07-06T09:30:02;2.13;;;1.23;;
12756;SDS011;31601;48.042;12.240;2022-07-06T09:32:30;2.85;;;1.33;;
12756;SDS011;31601;48.042;12.240;2022-07-06T09:34:57;3.00;;;1.25;;
12756;SDS011;31601;48.042;12.240;2022-07-06T09:37:25;3.17;;;1.50;;
12756;SDS011;31601;48.042;12.240;2022-07-06T09:39:55;3.47;;;1.35;;
12756;SDS011;31601;48.042;12.240;2022-07-06T09:42:24;3.72;;;1.50;;
12756;SDS011;31601;48.042;12.240;2022-07-06T09:44:51;5.20;;;1.70;;
12756;SDS011;31601;48.042;12.240;2022-07-06T09:47:18;3.38;;;1.55;;
12756;SDS011;31601;48.042;12.240;2022-07-06T09:49:45;6.07;;;1.40;;
12756;SDS011;31601;48.042;12.240;2022-07-06T09:52:13;2.88;;;1.55;;
12756;SDS011;31601;48.042;12.240;2022-07-06T09:54:41;8.27;;;1.38;;
12756;SDS011;31601;48.042;12.240;2022-07-06T09:57:08;2.30;;;1.30;;
12756;SDS011;31601;48.042;12.240;2022-07-06T09:59:34;1.30;;;1.13;;
12756;SDS011;31601;48.042;12.240;2022-07-06T10:02:02;3.22;;;1.40;;
12756;SDS011;31601;48.042;12.240;2022-07-06T10:04:31;4.60;;;1.33;;
12756;SDS011;31601;48.042;12.240;2022-07-06T10:06:58;2.53;;;1.30;;
12756;SDS011;31601;48.042;12.240;2022-07-06T10:09:26;3.05;;;1.42;;
12756;SDS011;31601;48.042;12.240;2022-07-06T10:11:55;2.55;;;1.65;;
12756;SDS011;31601;48.042;12.240;2022-07-06T10:14:23;2.75;;;1.20;;
12756;SDS011;31601;48.042;12.240;2022-07-06T10:16:53;3.05;;;1.50;;
12756;SDS011;31601;48.042;12.240;2022-07-06T10:19:22;4.00;;;1.30;;
12756;SDS011;31601;48.042;12.240;2022-07-06T10:21:48;3.72;;;1.40;;
12756;SDS011;31601;48.042;12.240;2022-07-06T10:24:17;6.07;;;1.20;;
12756;SDS011;31601;48.042;12.240;2022-07-06T10:26:44;3.63;;;1.50;;
12756;SDS011;31601;48.042;12.240;2022-07-06T10:29:13;4.72;;;1.70;;
12756;SDS011;31601;48.042;12.240;2022-07-06T10:31:42;3.88;;;1.35;;
12756;SDS011;31601;48.042;12.240;2022-07-06T10:34:11;4.88;;;1.73;;
12756;SDS011;31601;48.042;12.240;2022-07-06T10:36:39;1.80;;;1.27;;
12756;SDS011;31601;48.042;12.240;2022-07-06T10:39:07;3.25;;;1.38;;
12756;SDS011;31601;48.042;12.240;2022-07-06T10:41:52;2.80;;;1.45;;
12756;SDS011;31601;48.042;12.240;2022-07-06T10:44:21;2.40;;;1.50;;
12756;SDS011;31601;48.042;12.240;2022-07-06T10:46:52;4.13;;;1.50;;
12756;SDS011;31601;48.042;12.240;2022-07-06T10:49:20;3.72;;;1.33;;
12756;SDS011;31601;48.042;12.240;2022-07-06T10:51:47;4.80;;;1.42;;
12756;SDS011;31601;48.042;12.240;2022-07-06T10:54:15;1.50;;;1.30;;
12756;SDS011;31601;48.042;12.240;2022-07-06T10:56:43;2.20;;;1.20;;
12756;SDS011;31601;48.042;12.240;2022-07-06T10:59:11;2.45;;;1.58;;
12756;SDS011;31601;48.042;12.240;2022-07-06T11:01:40;2.75;;;1.30;;
12756;SDS011;31601;48.042;12.240;2022-07-06T11:04:08;3.42;;;1.10;;
12756;SDS011;31601;48.042;12.240;2022-07-06T11:06:36;11.57;;;1.77;;
12756;SDS011;31601;48.042;12.240;2022-07-06T11:09:04;2.65;;;1.40;;
12756;SDS011;31601;48.042;12.240;2022-07-06T11:11:38;1.33;;;1.13;;
12756;SDS011;31601;48.042;12.240;2022-07-06T11:14:07;2.58;;;1.20;;
12756;SDS011;31601;48.042;12.240;2022-07-06T11:16:36;4.20;;;1.45;;
12756;SDS011;31601;48.042;12.240;2022-07-06T11:19:06;1.58;;;1.20;;
12756;SDS011;31601;48.042;12.240;2022-07-06T11:21:44;1.98;;;1.10;;
12756;SDS011;31601;48.042;12.240;2022-07-06T11:24:12;3.60;;;1.30;;
12756;SDS011;31601;48.042;12.240;2022-07-06T11:26:40;2.53;;;1.60;;
12756;SDS011;31601;48.042;12.240;2022-07-06T11:29:08;4.82;;;1.33;;
12756;SDS011;31601;48.042;12.240;2022-07-06T11:31:37;2.60;;;1.50;;
12756;SDS011;31601;48.042;12.240;2022-07-06T11:34:06;3.47;;;1.30;;
12756;SDS011;31601;48.042;12.240;2022-07-06T11:36:34;4.03;;;1.38;;
12756;SDS011;31601;48.042;12.240;2022-07-06T11:39:01;3.97;;;1.60;;
12756;SDS011;31601;48.042;12.240;2022-07-06T11:41:28;4.05;;;1.88;;
12756;SDS011;31601;48.042;12.240;2022-07-06T11:43:54;4.38;;;1.50;;
12756;SDS011;31601;48.042;12.240;2022-07-06T11:46:21;3.97;;;1.67;;
12756;SDS011;31601;48.042;12.240;2022-07-06T11:48:50;2.25;;;1.50;;
12756;SDS011;31601;48.042;12.240;2022-07-06T11:51:19;3.55;;;1.40;;
12756;SDS011;31601;48.042;12.240;2022-07-06T11:53:47;5.88;;;1.48;;
12756;SDS011;31601;48.042;12.240;2022-07-06T11:56:15;3.97;;;1.60;;
12756;SDS011;31601;48.042;12.240;2022-07-06T11:58:44;1.98;;;1.50;;
12756;SDS011;31601;48.042;12.240;2022-07-06T12:01:12;2.88;;;1.50;;
12756;SDS011;31601;48.042;12.240;2022-07-06T12:03:39;1.90;;;1.60;;
12756;SDS011;31601;48.042;12.240;2022-07-06T12:06:06;2.95;;;1.50;;
12756;SDS011;31601;48.042;12.240;2022-07-06T12:08:43;3.85;;;1.20;;
12756;SDS011;31601;48.042;12.240;2022-07-06T12:11:10;3.78;;;1.63;;
12756;SDS011;31601;48.042;12.240;2022-07-06T12:13:37;4.20;;;1.75;;
12756;SDS011;31601;48.042;12.240;2022-07-06T12:16:10;2.70;;;1.50;;
12756;SDS011;31601;48.042;12.240;2022-07-06T12:18:37;2.58;;;1.67;;
12756;SDS011;31601;48.042;12.240;2022-07-06T12:21:06;4.43;;;1.60;;
12756;SDS011;31601;48.042;12.240;2022-07-06T12:23:45;3.78;;;1.77;;
12756;SDS011;31601;48.042;12.240;2022-07-06T12:26:13;3.70;;;1.48;;
12756;SDS011;31601;48.042;12.240;2022-07-06T12:28:40;6.28;;;1.50;;
12756;SDS011;31601;48.042;12.240;2022-07-06T12:31:07;2.28;;;1.35;;
12756;SDS011;31601;48.042;12.240;2022-07-06T12:33:34;2.85;;;1.30;;
12756;SDS011;31601;48.042;12.240;2022-07-06T12:36:11;4.65;;;1.60;;
12756;SDS011;31601;48.042;12.240;2022-07-06T12:38:44;2.35;;;1.40;;
12756;SDS011;31601;48.042;12.240;2022-07-06T12:41:26;2.83;;;1.63;;
12756;SDS011;31601;48.042;12.240;2022-07-06T12:44:00;2.22;;;1.60;;
12756;SDS011;31601;48.042;12.240;2022-07-06T12:46:28;4.15;;;1.42;;
12756;SDS011;31601;48.042;12.240;2022-07-06T12:49:01;3.22;;;1.52;;
12756;SDS011;31601;48.042;12.240;2022-07-06T12:51:28;3.15;;;1.50;;
12756;SDS011;31601;48.042;12.240;2022-07-06T12:54:15;1.50;;;1.40;;
12756;SDS011;31601;48.042;12.240;2022-07-06T12:59:30;2.38;;;1.50;;
12756;SDS011;31601;48.042;12.240;2022-07-06T13:01:57;3.55;;;1.40;;
12756;SDS011;31601;48.042;12.240;2022-07-06T13:04:26;6.93;;;1.42;;
12756;SDS011;31601;48.042;12.240;2022-07-06T13:06:54;5.40;;;1.52;;
12756;SDS011;31601;48.042;12.240;2022-07-06T13:09:22;3.45;;;1.48;;
12756;SDS011;31601;48.042;12.240;2022-07-06T13:11:49;3.05;;;1.52;;
12756;SDS011;31601;48.042;12.240;2022-07-06T13:14:16;4.65;;;1.35;;
12756;SDS011;31601;48.042;12.240;2022-07-06T13:16:43;2.78;;;1.27;;
12756;SDS011;31601;48.042;12.240;2022-07-06T13:19:11;4.20;;;1.40;;
12756;SDS011;31601;48.042;12.240;2022-07-06T13:21:38;3.92;;;1.50;;
12756;SDS011;31601;48.042;12.240;2022-07-06T13:24:05;5.22;;;1.52;;
12756;SDS011;31601;48.042;12.240;2022-07-06T13:26:33;3.72;;;1.45;;
12756;SDS011;31601;48.042;12.240;2022-07-06T13:29:00;4.05;;;1.30;;
12756;SDS011;31601;48.042;12.240;2022-07-06T13:31:26;1.75;;;1.20;;
12756;SDS011;31601;48.042;12.240;2022-07-06T13:33:53;3.92;;;1.20;;
12756;SDS011;31601;48.042;12.240;2022-07-06T13:36:19;3.92;;;1.40;;
12756;SDS011;31601;48.042;12.240;2022-07-06T13:38:46;2.03;;;1.40;;
12756;SDS011;31601;48.042;12.240;2022-07-06T13:41:13;5.72;;;1.40;;
12756;SDS011;31601;48.042;12.240;2022-07-06T13:43:41;3.05;;;1.40;;
12756;SDS011;31601;48.042;12.240;2022-07-06T13:46:07;4.00;;;1.83;;
12756;SDS011;31601;48.042;12.240;2022-07-06T13:48:35;3.92;;;1.17;;
12756;SDS011;31601;48.042;12.240;2022-07-06T13:51:02;2.88;;;1.75;;
12756;SDS011;31601;48.042;12.240;2022-07-06T13:53:28;5.32;;;1.40;;
12756;SDS011;31601;48.042;12.240;2022-07-06T13:55:56;2.92;;;1.33;;
12756;SDS011;31601;48.042;12.240;2022-07-06T13:58:23;1.77;;;1.20;;
12756;SDS011;31601;48.042;12.240;2022-07-06T14:00:51;3.50;;;1.50;;
12756;SDS011;31601;48.042;12.240;2022-07-06T14:03:17;1.45;;;1.25;;
12756;SDS011;31601;48.042;12.240;2022-07-06T14:05:44;4.18;;;2.00;;
12756;SDS011;31601;48.042;12.240;2022-07-06T14:08:10;2.75;;;1.60;;
12756;SDS011;31601;48.042;12.240;2022-07-06T14:10:37;2.70;;;1.30;;
12756;SDS011;31601;48.042;12.240;2022-07-06T14:13:03;5.35;;;1.60;;
12756;SDS011;31601;48.042;12.240;2022-07-06T14:15:30;3.42;;;1.40;;
12756;SDS011;31601;48.042;12.240;2022-07-06T14:17:58;2.25;;;1.33;;
12756;SDS011;31601;48.042;12.240;2022-07-06T14:20:24;4.28;;;1.48;;
12756;SDS011;31601;48.042;12.240;2022-07-06T14:22:50;3.33;;;1.05;;
12756;SDS011;31601;48.042;12.240;2022-07-06T14:25:17;2.78;;;1.30;;
12756;SDS011;31601;48.042;12.240;2022-07-06T14:27:43;2.70;;;1.35;;
12756;SDS011;31601;48.042;12.240;2022-07-06T14:30:10;4.07;;;1.15;;
12756;SDS011;31601;48.042;12.240;2022-07-06T14:32:37;2.70;;;1.20;;
12756;SDS011;31601;48.042;12.240;2022-07-06T14:35:05;7.63;;;1.75;;
12756;SDS011;31601;48.042;12.240;2022-07-06T14:37:31;1.83;;;1.15;;